KMKC/MKC METAR and TAF weather

Enter ICAO airport designator
Station Type Date Time Source
KMKC METAR 2020/04/07 06:54 UTC NOAA

KMKC 070654Z 20007KT 10SM CLR 17/14 A2981 RMK AO2 SLP091 T01720144


Station Type Date Time Source
KMKC Decoded METAR 2020/04/07 06:54 UTC NOAA

KANSAS CITY DOWNTOWN AIRPORT , MO, United States (KMKC) 39-07N 094-36W 227M
Apr 07, 2020 - 02:54 AM EDT / 2020.04.07 0654 UTC
Wind: from the SSW (200 degrees) at 8 MPH (7 KT):0
Visibility: 10 mile(s):0
Sky conditions: clear
Temperature: 63.0 F (17.2 C)
Dew Point: 57.9 F (14.4 C)
Relative Humidity: 83%
Pressure (altimeter): 29.81 in. Hg (1009 hPa)
ob: KMKC 070654Z 20007KT 10SM CLR 17/14 A2981 RMK AO2 SLP091 T01720144
cycle: 7

Station Type Date Time Source
KMKC TAF 2020/04/07 06:22 UTC NOAA

TAF KMKC 070520Z 0706/0806 19010KT P6SM OVC035
FM071000 21007KT 5SM BR OVC015
FM071700 24008KT P6SM BKN035
FM072100 27006KT P6SM SCT250

Example: see airport list